Time;durP1;ratioP1;P1;durP2;ratioP2;P2;SDS_P1;SDS_P2;PMS_P1;PMS_P2;Temp;Humidity;BMP_temperature;BMP_pressure;BME280_temperature;BME280_humidity;BME280_pressure;Samples;Min_cycle;Max_cycle;Signal;HPM_P1;HPM_P2
2022/06/09 04:31:25;;;;;;;;;3.25;2.00;;;;;14.32;71.48;101183.72;5016181;28;45480;-73
2022/06/09 04:33:50;;;;;;;;;2.00;2.00;;;;;14.33;71.03;101201.66;5035011;28;45545;-72
2022/06/09 04:36:18;;;;;;;;;2.50;2.50;;;;;14.36;71.01;101201.50;5034994;28;46010;-71
2022/06/09 04:38:43;;;;;;;;;3.50;2.00;;;;;14.39;70.79;101207.63;5034956;28;45387;-73
2022/06/09 04:41:11;;;;;;;;;5.00;2.00;;;;;14.41;71.08;101209.38;5034853;28;45464;-73
2022/06/09 04:43:37;;;;;;;;;7.00;2.00;;;;;14.41;70.52;101210.25;5034734;28;45549;-73
2022/06/09 04:46:04;;;;;;;;;4.75;3.50;;;;;14.39;70.99;101212.16;5034849;28;45503;-72
2022/06/09 04:48:29;;;;;;;;;3.00;3.00;;;;;14.37;70.80;101208.66;5034691;28;45371;-71
2022/06/09 04:50:55;;;;;;;;;4.25;4.00;;;;;14.37;70.65;101214.88;5034592;28;45329;-73
2022/06/09 04:53:20;;;;;;;;;3.00;2.75;;;;;14.37;70.51;101211.34;5034468;28;45523;-72
2022/06/09 04:55:46;;;;;;;;;6.00;2.50;;;;;14.46;70.85;101231.59;5034842;28;46122;-74
2022/06/09 04:58:11;;;;;;;;;2.50;2.00;;;;;14.38;70.58;101219.38;5034473;28;45289;-73
2022/06/09 05:00:37;;;;;;;;;3.75;2.75;;;;;14.47;70.88;101234.19;5033667;28;45450;-73
2022/06/09 05:03:03;;;;;;;;;4.50;3.00;;;;;14.42;70.77;101235.41;5034442;28;46051;-74
2022/06/09 05:05:32;;;;;;;;;4.00;3.00;;;;;14.48;70.98;101241.31;5034230;28;46364;-76
2022/06/09 05:07:59;;;;;;;;;6.00;4.25;;;;;14.43;70.69;101219.13;5034605;28;45341;-77
2022/06/09 05:10:25;;;;;;;;;4.25;2.75;;;;;14.55;70.43;101236.47;5035312;28;45465;-74
2022/06/09 05:12:51;;;;;;;;;4.00;3.75;;;;;14.53;70.22;101228.47;5034736;28;45289;-74
2022/06/09 05:15:19;;;;;;;;;5.50;2.50;;;;;14.51;70.45;101214.19;5037586;28;45384;-74
2022/06/09 05:17:48;;;;;;;;;2.50;2.25;;;;;14.71;70.05;101242.78;5034275;28;45503;-75
2022/06/09 05:20:15;;;;;;;;;3.25;3.00;;;;;14.73;69.96;101249.81;5034303;28;45509;-76
2022/06/09 05:22:41;;;;;;;;;1.00;1.00;;;;;14.73;69.78;101246.25;5034483;28;45469;-73
2022/06/09 05:25:08;;;;;;;;;3.50;3.50;;;;;14.65;70.03;101246.69;5034135;28;46333;-74
2022/06/09 05:27:33;;;;;;;;;3.00;1.25;;;;;14.67;69.88;101244.78;5034830;28;45333;-77
2022/06/09 05:30:00;;;;;;;;;3.75;2.75;;;;;14.69;70.08;101250.97;5034904;28;45371;-75
2022/06/09 05:32:26;;;;;;;;;6.50;4.50;;;;;14.84;69.68;101275.34;5029027;28;46291;-75
2022/06/09 05:34:52;;;;;;;;;6.50;4.00;;;;;14.87;69.86;101265.28;5014871;28;46049;-73
2022/06/09 05:37:18;;;;;;;;;3.75;3.00;;;;;14.95;69.58;101270.25;5014056;28;45431;-73
2022/06/09 05:44:56;;;;;;;;;4.75;4.00;;;;;15.02;69.17;101287.84;5034150;28;45376;-71
2022/06/09 05:47:23;;;;;;;;;4.25;3.00;;;;;15.04;69.01;101273.31;5034149;28;45483;-71
2022/06/09 05:49:50;;;;;;;;;5.00;3.75;;;;;15.14;68.60;101281.78;5034037;28;45479;-73
2022/06/09 05:52:19;;;;;;;;;5.75;2.00;;;;;15.17;68.54;101283.41;5033515;28;45328;-75
2022/06/09 05:54:44;;;;;;;;;4.00;3.00;;;;;15.20;68.89;101278.72;5033521;28;46119;-74
2022/06/09 05:57:09;;;;;;;;;3.25;3.00;;;;;15.26;68.52;101283.75;5026507;28;45423;-72
2022/06/09 05:59:37;;;;;;;;;3.75;3.75;;;;;15.39;68.38;101295.63;4995928;28;45199;-72
2022/06/09 06:02:03;;;;;;;;;6.25;3.00;;;;;15.45;67.66;101297.97;5013716;28;45612;-74
2022/06/09 06:04:28;;;;;;;;;4.25;3.00;;;;;15.48;67.58;101296.94;5013633;28;45771;-73
2022/06/09 06:06:54;;;;;;;;;3.25;3.25;;;;;15.42;67.63;101302.66;5013882;28;45420;-75
2022/06/09 06:09:23;;;;;;;;;5.75;2.75;;;;;15.41;67.71;101301.78;5014173;28;45194;-75
2022/06/09 06:11:49;;;;;;;;;3.50;3.50;;;;;15.48;67.59;101305.88;5023351;28;45497;-74
2022/06/09 06:14:17;;;;;;;;;4.50;4.50;;;;;15.50;67.35;101303.09;5037324;28;46272;-75
2022/06/09 06:16:44;;;;;;;;;4.25;3.00;;;;;15.51;67.60;101308.41;5036906;28;45370;-77
2022/06/09 06:19:12;;;;;;;;;3.00;3.00;;;;;15.51;67.92;101311.13;5037283;28;45321;-75
2022/06/09 06:21:38;;;;;;;;;4.00;4.00;;;;;15.44;67.39;101304.34;5036888;28;45527;-76
2022/06/09 06:24:04;;;;;;;;;4.50;3.00;;;;;15.57;67.78;101325.28;5036716;28;46371;-76
2022/06/09 06:26:31;;;;;;;;;4.00;4.00;;;;;15.64;67.50;101310.47;5036810;28;45353;-76
2022/06/09 06:28:57;;;;;;;;;6.00;3.50;;;;;15.74;67.46;101312.53;5037113;28;45601;-73
2022/06/09 06:31:22;;;;;;;;;4.50;3.25;;;;;15.95;66.40;101312.22;5036551;28;45561;-73
2022/06/09 06:33:48;;;;;;;;;4.50;2.25;;;;;16.01;66.57;101320.84;5020985;28;46052;-73
2022/06/09 06:36:13;;;;;;;;;6.25;4.50;;;;;15.95;65.95;101318.50;5016562;28;45357;-74
2022/06/09 06:38:40;;;;;;;;;2.75;2.75;;;;;15.97;66.07;101332.81;5016818;28;45374;-74
2022/06/09 06:41:07;;;;;;;;;5.25;3.00;;;;;15.93;66.27;101323.13;5016889;28;45425;-75
2022/06/09 06:43:32;;;;;;;;;3.50;2.25;;;;;15.98;65.58;101329.16;5016517;28;46177;-75
2022/06/09 06:45:58;;;;;;;;;5.00;3.00;;;;;15.89;65.71;101332.41;5016856;28;45269;-75
2022/06/09 06:48:23;;;;;;;;;4.00;3.00;;;;;15.91;65.95;101335.03;5016941;28;45478;-74
2022/06/09 06:50:48;;;;;;;;;5.25;5.25;;;;;15.90;66.43;101323.34;5016581;28;45428;-75
2022/06/09 06:53:15;;;;;;;;;3.50;2.25;;;;;16.05;66.31;101333.25;5016317;28;46272;-73
2022/06/09 06:55:41;;;;;;;;;3.50;3.50;;;;;16.17;65.85;101342.44;5016652;28;45326;-74
2022/06/09 06:58:07;;;;;;;;;1.00;1.00;;;;;16.15;64.90;101336.28;5016704;28;45234;-74
2022/06/09 07:00:33;;;;;;;;;5.00;5.00;;;;;16.27;65.56;101339.09;5016536;28;45325;-74
2022/06/09 07:02:58;;;;;;;;;5.25;4.00;;;;;16.33;64.67;101346.00;5016202;28;46306;-75
2022/06/09 07:05:24;;;;;;;;;5.00;3.75;;;;;16.33;64.89;101353.25;4997915;28;47988;-74
2022/06/09 07:07:49;;;;;;;;;4.75;3.00;;;;;16.41;65.42;101357.22;5016168;28;45651;-73
2022/06/09 07:10:15;;;;;;;;;7.00;4.00;;;;;16.42;64.82;101360.78;5016728;28;45455;-73
2022/06/09 07:12:41;;;;;;;;;3.75;2.00;;;;;16.58;63.90;101370.63;5016275;28;46168;-74
2022/06/09 07:15:08;;;;;;;;;7.25;4.00;;;;;16.77;64.30;101366.78;5016425;28;45898;-76
2022/06/09 07:17:34;;;;;;;;;3.00;2.25;;;;;17.04;62.62;101370.50;5016405;28;45380;-74
2022/06/09 07:19:59;;;;;;;;;4.00;3.75;;;;;17.25;62.99;101374.56;5015801;28;45557;-73
2022/06/09 07:22:24;;;;;;;;;4.25;4.25;;;;;17.49;62.23;101368.53;5015932;28;45350;-72
2022/06/09 07:24:50;;;;;;;;;6.75;3.75;;;;;17.57;61.12;101377.03;5015741;28;45383;-74
2022/06/09 07:27:16;;;;;;;;;4.00;4.00;;;;;17.61;62.00;101365.88;5032150;28;45560;-75
2022/06/09 07:29:41;;;;;;;;;4.50;3.00;;;;;17.81;61.14;101383.59;5036252;28;45291;-74
2022/06/09 07:32:07;;;;;;;;;4.00;2.75;;;;;17.93;60.88;101376.50;5033575;28;46170;-74
2022/06/09 07:34:33;;;;;;;;;5.75;3.00;;;;;17.98;58.88;101391.50;5016252;28;45353;-73
2022/06/09 07:36:59;;;;;;;;;6.50;3.00;;;;;17.82;59.44;101388.06;5015956;28;45410;-74
2022/06/09 07:39:25;;;;;;;;;14.75;11.00;;;;;17.69;59.90;101392.56;5015956;28;45594;-75
2022/06/09 07:41:50;;;;;;;;;7.25;5.50;;;;;17.62;59.07;101399.31;5016105;28;45452;-75
2022/06/09 07:44:16;;;;;;;;;5.00;5.00;;;;;17.49;59.46;101407.38;5016261;28;45388;-75
2022/06/09 07:46:42;;;;;;;;;5.00;3.25;;;;;17.41;59.27;101412.41;5016044;28;45326;-74
2022/06/09 07:49:08;;;;;;;;;7.75;3.25;;;;;17.23;59.26;101409.03;4997695;28;45601;-73
2022/06/09 07:51:33;;;;;;;;;5.25;4.25;;;;;17.20;59.51;101411.03;5015402;28;45370;-75
2022/06/09 07:54:00;;;;;;;;;4.00;4.00;;;;;17.23;61.20;101405.44;5015615;28;45309;-75
2022/06/09 07:56:26;;;;;;;;;5.50;4.75;;;;;17.38;61.00;101408.03;5015856;28;45358;-74
2022/06/09 07:58:52;;;;;;;;;6.50;3.75;;;;;17.61;59.43;101406.56;5015586;28;45473;-73
2022/06/09 08:01:20;;;;;;;;;3.00;3.00;;;;;17.67;60.13;101408.06;5015262;28;46636;-75
2022/06/09 08:03:46;;;;;;;;;4.00;3.00;;;;;17.72;59.64;101414.03;5015515;28;45520;-74
2022/06/09 08:06:12;;;;;;;;;4.25;3.00;;;;;17.78;58.81;101408.19;5015024;28;45560;-75
2022/06/09 08:08:38;;;;;;;;;5.50;3.50;;;;;17.82;58.38;101417.03;5015112;28;45417;-73
2022/06/09 08:11:05;;;;;;;;;2.50;2.00;;;;;17.85;58.63;101422.25;5015277;28;46033;-73
2022/06/09 08:13:32;;;;;;;;;5.00;5.00;;;;;17.84;58.76;101415.09;5015457;28;45305;-73
2022/06/09 08:15:58;;;;;;;;;4.00;4.00;;;;;17.85;57.86;101431.28;5015316;28;45548;-75
2022/06/09 08:18:23;;;;;;;;;7.25;5.75;;;;;17.69;58.15;101404.25;5006145;28;45917;-74
2022/06/09 08:20:48;;;;;;;;;5.50;3.00;;;;;17.76;57.88;101429.16;5034664;28;46310;-75
2022/06/09 08:23:18;;;;;;;;;2.75;2.50;;;;;17.64;58.21;101421.81;5035330;28;45333;-75
2022/06/09 08:25:46;;;;;;;;;5.25;5.00;;;;;17.77;58.29;101431.78;5035184;28;45546;-74
2022/06/09 08:28:12;;;;;;;;;6.00;6.00;;;;;17.80;57.68;101432.53;5035346;28;45572;-73
2022/06/09 08:30:39;;;;;;;;;5.50;4.50;;;;;17.95;57.77;101437.81;5034897;28;46387;-74
2022/06/09 08:33:05;;;;;;;;;7.00;5.00;;;;;18.04;57.71;101429.06;5025363;28;45731;-73
2022/06/09 08:35:31;;;;;;;;;6.25;4.00;;;;;18.08;57.36;101437.88;5033726;28;45360;-74
2022/06/09 08:37:57;;;;;;;;;4.00;4.00;;;;;17.99;57.49;101422.22;5034841;28;45382;-76
2022/06/09 08:40:31;;;;;;;;;4.50;4.50;;;;;18.12;57.20;101440.28;5034686;28;45321;-74
2022/06/09 08:43:32;;;;;;;;;6.00;6.00;;;;;18.04;57.06;101439.91;5035109;28;45387;-73
2022/06/09 08:46:06;;;;;;;;;2.50;2.50;;;;;18.12;55.01;101448.41;5015323;28;45506;-75
2022/06/09 08:48:39;;;;;;;;;6.25;6.25;;;;;18.00;55.08;101434.81;5034744;28;45324;-72
2022/06/09 08:51:32;;;;;;;;;5.25;3.50;;;;;17.83;55.41;101432.34;5034326;28;45363;-74
2022/06/09 08:54:05;;;;;;;;;6.00;4.00;;;;;17.87;55.93;101414.88;5034681;28;45427;-74
2022/06/09 08:56:31;;;;;;;;;6.25;3.00;;;;;17.93;56.13;101403.63;5034808;28;45321;-75
2022/06/09 08:59:10;;;;;;;;;2.75;2.50;;;;;18.17;55.20;101422.84;5034615;28;45320;-73
2022/06/09 09:01:42;;;;;;;;;4.75;2.75;;;;;18.21;55.47;101418.94;5034353;28;45859;-75
2022/06/09 09:04:07;;;;;;;;;3.50;3.00;;;;;18.32;54.35;101428.09;5034630;28;45436;-75
2022/06/09 09:06:43;;;;;;;;;4.00;4.00;;;;;18.34;53.94;101420.72;5034372;28;45377;-76
2022/06/09 09:09:24;;;;;;;;;6.00;3.00;;;;;18.38;54.19;101422.25;5034536;28;45470;-74
2022/06/09 09:12:10;;;;;;;;;4.75;3.75;;;;;18.51;53.74;101431.31;5035092;28;45362;-74
2022/06/09 09:14:44;;;;;;;;;2.75;2.75;;;;;18.67;55.52;101423.03;5035330;28;45455;-75
2022/06/09 09:17:17;;;;;;;;;2.00;2.00;;;;;18.78;53.24;101411.44;5035501;28;45410;-76
2022/06/09 09:19:53;;;;;;;;;0.25;0.25;;;;;18.80;52.08;101420.31;5034547;28;45383;-74
2022/06/09 09:22:44;;;;;;;;;4.25;3.00;;;;;18.76;52.12;101430.53;5034185;28;45467;-74
2022/06/09 09:25:15;;;;;;;;;2.00;2.00;;;;;18.80;52.59;101420.31;5034255;28;45364;-74
2022/06/09 09:27:48;;;;;;;;;5.00;2.00;;;;;18.84;52.55;101425.44;5016337;28;45539;-75
2022/06/09 09:30:21;;;;;;;;;2.00;2.00;;;;;19.02;53.20;101434.16;5034805;28;45298;-75
2022/06/09 09:32:53;;;;;;;;;1.25;1.25;;;;;19.22;52.83;101440.91;5025810;28;46373;-74
2022/06/09 09:35:40;;;;;;;;;1.00;1.00;;;;;19.32;52.02;101435.66;4996138;28;45301;-75
2022/06/09 09:38:07;;;;;;;;;3.00;2.00;;;;;19.38;51.69;101441.56;5014232;28;45328;-74
2022/06/09 09:40:43;;;;;;;;;4.25;2.75;;;;;19.51;52.10;101442.44;5014054;28;45522;-75
2022/06/09 09:43:16;;;;;;;;;2.25;2.00;;;;;19.63;52.00;101429.81;5014157;28;46071;-75
2022/06/09 09:45:47;;;;;;;;;4.75;2.00;;;;;19.77;51.24;101426.94;5021746;28;45398;-76
2022/06/09 09:48:19;;;;;;;;;2.00;2.00;;;;;19.94;50.77;101433.88;5037750;28;45348;-74
2022/06/09 09:50:58;;;;;;;;;1.00;1.00;;;;;20.05;48.82;101433.94;5037454;28;45208;-74
2022/06/09 09:53:35;;;;;;;;;2.25;2.25;;;;;20.11;48.50;101446.22;5037288;28;46974;-74
2022/06/09 09:56:00;;;;;;;;;5.00;1.75;;;;;19.95;49.19;101438.31;5019452;28;45345;-76
2022/06/09 09:58:36;;;;;;;;;5.75;2.50;;;;;19.85;48.67;101445.44;5037535;28;45337;-75
2022/06/09 10:01:07;;;;;;;;;2.00;2.00;;;;;19.83;48.90;101447.38;5037417;28;46438;-74
2022/06/09 10:09:28;;;;;;;;;3.50;2.00;;;;;19.97;48.79;101464.47;5037303;28;45474;-73
2022/06/09 10:12:01;;;;;;;;;3.50;2.25;;;;;19.84;47.53;101471.75;5037318;28;45495;-74
2022/06/09 10:14:38;;;;;;;;;2.75;2.75;;;;;19.61;47.68;101468.00;5020062;28;46183;-75
2022/06/09 10:17:20;;;;;;;;;3.25;3.00;;;;;19.67;47.62;101472.13;5037445;28;45331;-74
2022/06/09 10:19:54;;;;;;;;;4.00;2.75;;;;;19.72;48.12;101467.25;5037280;28;45269;-75
2022/06/09 10:22:22;;;;;;;;;5.50;3.00;;;;;19.72;46.98;101472.69;5036860;28;45378;-74
2022/06/09 10:24:56;;;;;;;;;1.00;1.00;;;;;19.68;47.76;101459.41;5036751;28;47082;-74
2022/06/09 10:27:27;;;;;;;;;1.75;1.75;;;;;19.76;48.22;101466.00;5037239;28;45344;-74
2022/06/09 10:30:17;;;;;;;;;1.75;1.75;;;;;19.81;47.28;101458.41;5037153;28;45435;-74
2022/06/09 10:32:56;;;;;;;;;5.00;1.50;;;;;19.79;46.73;101475.81;5030162;28;45490;-75
2022/06/09 10:35:33;;;;;;;;;2.75;2.00;;;;;19.72;47.68;101466.38;5016769;28;46125;-73
2022/06/09 10:38:07;;;;;;;;;1.00;1.00;;;;;19.70;47.24;101477.34;5016855;28;45382;-74
2022/06/09 10:40:36;;;;;;;;;0.75;0.50;;;;;19.72;48.39;101464.50;5016956;28;45411;-74
2022/06/09 10:43:10;;;;;;;;;2.00;2.00;;;;;19.89;48.95;101471.44;5016853;28;45537;-76
2022/06/09 10:45:58;;;;;;;;;3.00;1.25;;;;;20.04;48.00;101464.88;5016732;28;45348;-74
2022/06/09 10:57:30;;;;;;;;;1.75;1.00;;;;;20.36;44.20;101476.97;5036611;28;45824;-74
2022/06/09 10:59:58;;;;;;;;;2.25;1.50;;;;;20.27;45.84;101480.34;5035984;28;45176;-75
2022/06/09 11:02:28;;;;;;;;;1.00;1.00;;;;;20.26;46.46;101458.69;5036648;28;45390;-77
2022/06/09 11:04:55;;;;;;;;;4.25;2.50;;;;;20.42;45.64;101475.63;5036322;28;45381;-73
2022/06/09 11:07:55;;;;;;;;;1.75;1.50;;;;;20.38;45.73;101488.63;5036446;28;46027;-74
2022/06/09 11:10:31;;;;;;;;;3.50;2.50;;;;;20.45;46.79;101494.47;5036316;28;45700;-74
2022/06/09 11:13:16;;;;;;;;;1.25;1.25;;;;;20.36;45.29;101495.16;5036317;28;45488;-74
2022/06/09 11:15:49;;;;;;;;;3.25;1.50;;;;;20.44;46.31;101487.28;5036297;28;45445;-73
2022/06/09 11:18:34;;;;;;;;;3.75;2.25;;;;;20.56;45.06;101478.22;5036513;28;45434;-73
2022/06/09 11:21:12;;;;;;;;;2.00;2.00;;;;;20.75;45.57;101481.28;5035886;28;45418;-77
2022/06/09 11:24:08;;;;;;;;;2.50;1.50;;;;;20.84;43.68;101476.94;5018108;28;45400;-74
2022/06/09 11:26:52;;;;;;;;;2.00;2.00;;;;;20.85;43.38;101486.84;5025934;28;45237;-74
2022/06/09 11:29:41;;;;;;;;;2.75;1.00;;;;;20.89;43.83;101476.59;5035909;28;45616;-73
2022/06/09 11:32:09;;;;;;;;;2.00;2.00;;;;;20.87;45.63;101481.28;5033112;28;45542;-74
2022/06/09 11:35:10;;;;;;;;;2.00;2.00;;;;;21.00;43.57;101487.56;5016085;28;45321;-75
2022/06/09 11:38:00;;;;;;;;;2.00;2.00;;;;;21.29;43.73;101488.00;5005761;28;45330;-74
2022/06/09 11:40:36;;;;;;;;;2.50;2.00;;;;;21.43;41.61;101485.06;5018345;28;45367;-74
2022/06/09 11:43:32;;;;;;;;;2.00;2.00;;;;;21.51;41.71;101488.94;5016082;28;45195;-73
2022/06/09 11:46:01;;;;;;;;;2.00;2.00;;;;;21.37;42.08;101469.16;5025544;28;45225;-74
2022/06/09 11:48:40;;;;;;;;;4.75;2.75;;;;;21.39;42.82;101481.72;5035688;28;45557;-75
2022/06/09 11:51:08;;;;;;;;;2.00;2.00;;;;;21.41;44.17;101485.19;5035656;28;46254;-77
2022/06/09 11:53:47;;;;;;;;;1.00;1.00;;;;;21.64;43.90;101477.88;5035490;28;45292;-75
2022/06/09 11:56:36;;;;;;;;;2.00;2.00;;;;;21.73;41.50;101481.72;5018203;28;45537;-75
2022/06/09 11:59:11;;;;;;;;;1.00;1.00;;;;;21.89;39.82;101474.03;5017687;28;46313;-76
2022/06/09 12:01:39;;;;;;;;;1.75;1.75;;;;;21.94;39.21;101481.84;5017241;28;46186;-77
2022/06/09 12:04:35;;;;;;;;;4.50;2.75;;;;;21.90;40.42;101481.22;5035525;28;45320;-77
2022/06/09 12:07:07;;;;;;;;;2.00;2.00;;;;;21.82;41.50;101484.59;5035764;28;45308;-75
2022/06/09 12:09:44;;;;;;;;;4.75;2.00;;;;;21.79;41.09;101487.56;5035257;28;45321;-74
2022/06/09 12:12:40;;;;;;;;;1.75;1.75;;;;;21.78;40.34;101488.53;5036217;28;45294;-75
2022/06/09 12:15:11;;;;;;;;;3.50;0.50;;;;;21.92;42.41;101483.84;5029629;28;45285;-75
2022/06/09 12:17:51;;;;;;;;;1.75;1.75;;;;;22.07;41.01;101490.81;5035354;28;45609;-76
2022/06/09 12:20:32;;;;;;;;;4.00;2.50;;;;;22.06;40.24;101505.44;5016952;28;47020;-75
2022/06/09 12:23:18;;;;;;;;;2.50;2.00;;;;;22.00;40.45;101498.63;5034946;28;45357;-75
2022/06/09 12:25:44;;;;;;;;;2.25;1.00;;;;;22.20;38.74;101489.66;5034992;28;45222;-76
2022/06/09 12:28:55;;;;;;;;;2.25;0.50;;;;;22.53;40.97;101501.53;5035677;28;45394;-75
2022/06/09 12:31:23;;;;;;;;;2.00;0.25;;;;;22.63;39.69;101500.59;5034516;28;45447;-73
2022/06/09 12:33:56;;;;;;;;;1.00;1.00;;;;;22.69;39.28;101488.28;5019210;28;46177;-74
2022/06/09 12:36:33;;;;;;;;;2.75;0.50;;;;;22.69;38.37;101501.09;5015003;28;45382;-73
2022/06/09 12:38:58;;;;;;;;;0.25;0.25;;;;;22.70;38.65;101491.91;5020034;28;45254;-75
2022/06/09 12:41:37;;;;;;;;;3.00;1.00;;;;;22.88;38.53;101506.75;5034734;28;45350;-74
2022/06/09 12:44:24;;;;;;;;;0.75;0.75;;;;;22.85;38.40;101505.16;5034767;28;46106;-75
2022/06/09 12:47:03;;;;;;;;;1.75;0.50;;;;;22.92;37.19;101508.22;5021353;28;45344;-73
2022/06/09 12:49:33;;;;;;;;;1.50;1.50;;;;;22.96;38.50;101499.66;5035113;28;45316;-74
2022/06/09 12:51:58;;;;;;;;;1.75;1.00;;;;;22.98;39.05;101492.16;5034705;28;45547;-74
2022/06/09 12:54:55;;;;;;;;;1.00;1.00;;;;;23.27;37.67;101510.66;5034614;28;45328;-75
2022/06/09 12:57:27;;;;;;;;;0.50;0.50;;;;;23.18;38.31;101492.31;5033397;28;45391;-76
2022/06/09 13:00:05;;;;;;;;;2.00;0.00;;;;;23.02;36.85;101512.78;5034837;28;45405;-75
2022/06/09 13:02:35;;;;;;;;;1.00;1.00;;;;;22.93;36.36;101510.84;5035054;28;45643;-75
2022/06/09 13:05:28;;;;;;;;;0.50;0.50;;;;;22.82;37.80;101510.00;5034281;28;46403;-75
2022/06/09 13:08:03;;;;;;;;;2.00;0.25;;;;;22.65;37.09;101509.53;5016096;28;45460;-74
2022/06/09 13:10:30;;;;;;;;;1.00;1.00;;;;;22.67;37.65;101522.22;5034467;28;45566;-74
2022/06/09 13:13:01;;;;;;;;;2.00;1.00;;;;;22.72;36.57;101504.41;5015973;28;45593;-74
2022/06/09 13:15:52;;;;;;;;;3.00;1.75;;;;;22.97;38.04;101517.75;5034146;28;46348;-74
2022/06/09 13:18:37;;;;;;;;;1.00;1.00;;;;;23.20;36.59;101504.84;5034565;28;45386;-73
2022/06/09 13:21:05;;;;;;;;;1.00;1.00;;;;;23.39;35.40;101515.06;5033421;28;45466;-74
2022/06/09 13:23:32;;;;;;;;;2.00;1.00;;;;;23.50;36.67;101514.13;5034241;28;45400;-75
2022/06/09 13:25:58;;;;;;;;;0.00;0.00;;;;;23.64;36.38;101509.19;5015891;28;46501;-75
2022/06/09 13:28:47;;;;;;;;;2.25;1.50;;;;;23.85;34.16;101519.22;5034141;28;45332;-74
2022/06/09 13:31:31;;;;;;;;;2.00;1.00;;;;;23.81;34.05;101523.25;5013005;28;45404;-74
2022/06/09 13:34:04;;;;;;;;;1.00;1.00;;;;;23.85;32.67;101517.34;5030654;28;45311;-74
2022/06/09 13:36:34;;;;;;;;;0.50;0.00;;;;;23.83;32.99;101523.97;5033867;28;45698;-74
2022/06/09 13:39:29;;;;;;;;;0.00;0.00;;;;;23.74;34.10;101533.88;5033777;28;45478;-74
2022/06/09 13:42:20;;;;;;;;;3.25;1.00;;;;;23.83;35.84;101543.13;5023428;28;46034;-76
2022/06/09 13:45:03;;;;;;;;;0.50;0.50;;;;;23.98;34.45;101530.84;5034264;28;45155;-76
2022/06/09 13:47:35;;;;;;;;;1.00;1.00;;;;;24.00;33.76;101535.16;5033760;28;46330;-75
2022/06/09 13:50:04;;;;;;;;;1.50;0.75;;;;;23.93;34.25;101536.72;5033688;28;45306;-74
2022/06/09 13:52:37;;;;;;;;;1.75;1.00;;;;;23.93;34.19;101538.56;5034192;28;45519;-75
2022/06/09 13:55:16;;;;;;;;;1.50;1.50;;;;;23.91;33.54;101535.97;5033800;28;45259;-73
2022/06/09 13:57:44;;;;;;;;;1.50;0.00;;;;;23.94;34.65;101543.06;5033984;28;46042;-75
2022/06/09 14:00:21;;;;;;;;;0.00;0.00;;;;;23.73;33.73;101527.50;5033601;28;45404;-74
2022/06/09 14:02:59;;;;;;;;;1.00;1.00;;;;;23.74;35.16;101537.47;5033944;28;45329;-75
2022/06/09 14:05:25;;;;;;;;;0.50;0.50;;;;;23.87;35.28;101545.47;5033690;28;45346;-74
2022/06/09 14:07:50;;;;;;;;;0.00;0.00;;;;;23.99;33.47;101536.16;5033462;28;45366;-74
2022/06/09 14:10:20;;;;;;;;;2.50;0.00;;;;;24.26;33.13;101534.69;5033783;28;45313;-75
2022/06/09 14:12:46;;;;;;;;;0.75;0.75;;;;;24.57;33.94;101533.63;5033780;28;45534;-73
2022/06/09 14:15:12;;;;;;;;;0.00;0.00;;;;;24.76;31.88;101524.56;5033730;28;45389;-75
2022/06/09 14:17:38;;;;;;;;;2.00;0.50;;;;;24.83;32.50;101531.22;5033686;28;45415;-73
2022/06/09 14:20:04;;;;;;;;;2.25;0.00;;;;;25.20;30.58;101536.88;5033265;28;45309;-75
2022/06/09 14:22:29;;;;;;;;;1.75;0.00;;;;;25.52;28.46;101528.31;5033474;28;45423;-74
2022/06/09 14:24:55;;;;;;;;;0.75;0.75;;;;;26.04;29.72;101531.47;5033634;28;45486;-75
2022/06/09 14:27:20;;;;;;;;;0.00;0.00;;;;;26.58;28.86;101526.00;5033610;28;45284;-75
2022/06/09 14:29:47;;;;;;;;;0.50;0.50;;;;;27.04;29.92;101529.59;5033778;28;45301;-74
2022/06/09 14:32:16;;;;;;;;;0.00;0.00;;;;;27.25;28.83;101532.00;5030771;28;45379;-73
2022/06/09 14:34:41;;;;;;;;;2.00;0.25;;;;;27.47;27.77;101526.88;5016657;28;45403;-74
2022/06/09 14:37:07;;;;;;;;;0.00;0.00;;;;;27.50;27.48;101523.78;5020581;28;46205;-75
2022/06/09 14:39:32;;;;;;;;;0.00;0.00;;;;;27.78;27.39;101518.16;5037120;28;45427;-75
2022/06/09 14:41:58;;;;;;;;;0.00;0.00;;;;;27.97;26.95;101525.31;5019069;28;45249;-74
2022/06/09 14:44:23;;;;;;;;;0.00;0.00;;;;;27.89;28.33;101520.63;5037112;28;45355;-75
2022/06/09 14:46:48;;;;;;;;;0.25;0.25;;;;;27.98;26.92;101530.69;5036768;28;45331;-74
2022/06/09 14:49:19;;;;;;;;;0.75;0.75;;;;;28.21;28.56;101539.25;5036979;28;45455;-75
2022/06/09 14:51:45;;;;;;;;;1.00;0.00;;;;;28.46;26.59;101545.72;5036989;28;45313;-74
2022/06/09 14:54:11;;;;;;;;;0.00;0.00;;;;;28.70;27.70;101545.78;5036878;28;45368;-75
2022/06/09 14:56:41;;;;;;;;;0.50;0.00;;;;;29.15;25.66;101539.88;5036533;28;45546;-75
2022/06/09 14:59:07;;;;;;;;;0.00;0.00;;;;;29.32;25.66;101547.13;5036879;28;45327;-75
2022/06/09 15:01:33;;;;;;;;;1.00;0.00;;;;;29.40;25.42;101554.56;5036440;28;45357;-73
2022/06/09 15:03:59;;;;;;;;;0.00;0.00;;;;;29.05;25.74;101554.88;5036567;28;45330;-75
2022/06/09 15:06:25;;;;;;;;;1.00;1.00;;;;;29.06;25.50;101556.59;5036208;28;45564;-73
2022/06/09 15:08:53;;;;;;;;;0.25;0.25;;;;;29.19;25.72;101552.28;5018635;28;45434;-74
2022/06/09 15:11:20;;;;;;;;;0.00;0.00;;;;;29.17;25.78;101546.09;5036825;28;45413;-75
2022/06/09 15:13:49;;;;;;;;;0.00;0.00;;;;;29.19;26.83;101548.66;5034629;28;45904;-77
2022/06/09 15:16:15;;;;;;;;;0.00;0.00;;;;;29.31;26.80;101556.44;5032327;28;46291;-76
2022/06/09 15:18:42;;;;;;;;;0.00;0.00;;;;;29.75;25.85;101549.69;5034572;28;45430;-74
2022/06/09 15:21:09;;;;;;;;;0.00;0.00;;;;;29.80;25.42;101534.28;5034307;28;45452;-77
2022/06/09 15:23:34;;;;;;;;;0.00;0.00;;;;;29.71;25.28;101561.09;5033257;28;45765;-77
2022/06/09 15:26:00;;;;;;;;;0.00;0.00;;;;;29.58;26.38;101570.97;5032884;28;45574;-76
2022/06/09 15:28:26;;;;;;;;;2.00;0.50;;;;;29.47;26.45;101533.50;5034534;28;45494;-76
2022/06/09 15:30:54;;;;;;;;;1.00;0.00;;;;;29.53;25.90;101549.38;5014579;28;45463;-76
2022/06/09 15:33:21;;;;;;;;;0.00;0.00;;;;;29.85;26.52;101556.75;5031493;28;45371;-76
2022/06/09 15:35:54;;;;;;;;;3.50;1.00;;;;;29.99;25.36;101566.25;5032149;28;46147;-75
2022/06/09 15:38:20;;;;;;;;;1.00;0.00;;;;;29.91;25.80;101560.72;5031766;28;45471;-74
2022/06/09 15:40:46;;;;;;;;;2.00;0.50;;;;;29.70;25.64;101564.88;5033889;28;45389;-75
2022/06/09 15:43:12;;;;;;;;;0.00;0.00;;;;;29.62;25.59;101564.91;5033725;28;45372;-77
2022/06/09 15:45:42;;;;;;;;;1.50;0.00;;;;;29.65;26.21;101569.22;5034444;28;45376;-75
2022/06/09 15:48:11;;;;;;;;;0.00;0.00;;;;;29.69;26.12;101565.06;5024482;28;45492;-74
2022/06/09 15:50:37;;;;;;;;;1.00;1.00;;;;;29.68;26.59;101558.69;5029800;28;45421;-75
2022/06/09 15:53:02;;;;;;;;;1.00;1.00;;;;;29.69;26.29;101562.28;5033831;28;45586;-75
2022/06/09 15:55:28;;;;;;;;;1.00;1.00;;;;;29.30;26.13;101576.81;5034356;28;45370;-75
2022/06/09 15:57:54;;;;;;;;;2.75;1.00;;;;;28.83;26.82;101575.72;5033071;28;45337;-75
2022/06/09 16:00:25;;;;;;;;;0.25;0.25;;;;;28.59;28.07;101568.16;5017424;28;45383;-76
2022/06/09 16:02:51;;;;;;;;;3.00;1.75;;;;;28.21;27.22;101578.72;5034435;28;45306;-75
2022/06/09 16:05:17;;;;;;;;;0.75;0.75;;;;;27.79;28.24;101578.63;5034483;28;45319;-75
2022/06/09 16:07:45;;;;;;;;;0.75;0.75;;;;;27.48;30.12;101589.19;5032606;28;45385;-74
2022/06/09 16:10:19;;;;;;;;;2.75;0.75;;;;;27.26;29.91;101583.31;5031680;28;45424;-75
2022/06/09 16:12:45;;;;;;;;;1.25;0.00;;;;;26.99;30.51;101585.13;5031412;28;45479;-74
2022/06/09 16:15:11;;;;;;;;;1.25;1.00;;;;;27.11;30.75;101581.13;5033655;28;45496;-74
2022/06/09 16:17:36;;;;;;;;;1.00;0.75;;;;;27.29;29.69;101597.63;5033181;28;45454;-75
2022/06/09 16:20:04;;;;;;;;;1.00;1.00;;;;;27.11;28.76;101586.63;5025374;28;45684;-77
2022/06/09 16:22:30;;;;;;;;;1.50;1.00;;;;;26.92;29.50;101584.00;5014821;28;45384;-74
2022/06/09 16:24:56;;;;;;;;;1.00;1.00;;;;;26.91;29.90;101587.78;5015060;28;45392;-74
2022/06/09 16:27:21;;;;;;;;;2.00;0.00;;;;;26.93;30.35;101585.75;5013454;28;45337;-74
2022/06/09 16:29:46;;;;;;;;;1.25;1.25;;;;;26.85;30.89;101576.50;5035505;28;45292;-74
2022/06/09 16:32:12;;;;;;;;;2.00;1.00;;;;;26.43;31.74;101581.69;5031811;28;45505;-73